Terminal Aerodrome Forecast
Issued by NWS Pocatello, ID

Home | Current Version | Previous Version | Text Only | Print | Product List | Glossary On
Versions: 1 2 3 4 5 6 7 8 9 10 11 12 13 14 15 16
000
FTUS45 KPIH 250149 AAA
TAFPIH
TAF AMD
KPIH 250149Z 2502/2524 27008KT P6SM VCTS SCT060CB BKN120
      TEMPO 2502/2503 VRB15G30KT -TSRA BKN050CB
     FM250400 22008KT P6SM SCT060 BKN200
     FM251600 25011KT P6SM OVC080
     FM252100 25012G22KT P6SM VCTS SCT050CB BKN080=

USA.gov is the U.S. government's official web portal to all federal, state and local government web resources and services.